Time;durP1;ratioP1;P1;durP2;ratioP2;P2;SDS_P1;SDS_P2;PMS_P1;PMS_P2;Temp;Humidity;BMP_temperature;BMP_pressure;BME280_temperature;BME280_humidity;BME280_pressure;Samples;Min_cycle;Max_cycle;Signal;HPM_P1;HPM_P2
2023/06/21 00:02:24;;;;;;;;;;;27.60;59.40;;;;;;5088296;27;43493;-76
2023/06/21 00:04:51;;;;;;;;;;;27.60;59.30;;;;;;5090078;27;42948;-76
2023/06/21 00:07:22;;;;;;;;;;;27.60;59.50;;;;;;5100960;27;43043;-76
2023/06/21 00:09:48;;;;;;;;;;;27.60;58.90;;;;;;5093659;27;43455;-75
2023/06/21 00:12:13;;;;;;;;;;;27.60;59.30;;;;;;5088526;27;43085;-75
2023/06/21 00:14:39;;;;;;;;;;;27.60;59.30;;;;;;5105397;27;42992;-75
2023/06/21 00:17:04;;;;;;;;;;;27.60;58.70;;;;;;5104244;27;43347;-76
2023/06/21 00:19:30;;;;;;;;;;;27.60;59.30;;;;;;5104063;27;43686;-79
2023/06/21 00:21:57;;;;;;;;;;;27.50;58.60;;;;;;5097642;27;43050;-75
2023/06/21 00:24:23;;;;;;;;;;;27.60;59.30;;;;;;5074887;27;42848;-75
2023/06/21 00:26:48;;;;;;;;;;;27.60;59.20;;;;;;5087907;27;42906;-74
2023/06/21 00:29:14;;;;;;;;;;;27.60;58.60;;;;;;5104465;27;43117;-76
2023/06/21 00:31:39;;;;;;;;;;;27.60;58.50;;;;;;5104740;27;42961;-75
2023/06/21 00:34:05;;;;;;;;;;;27.60;58.40;;;;;;5104403;27;43369;-75
2023/06/21 00:36:30;;;;;;;;;;;27.60;59.00;;;;;;5103073;27;44097;-74
2023/06/21 00:38:56;;;;;;;;;;;27.50;58.50;;;;;;5104550;27;43956;-75
2023/06/21 00:41:21;;;;;;;;;;;27.50;58.60;;;;;;5104927;27;43094;-75
2023/06/21 00:43:47;;;;;;;;;;;27.60;59.20;;;;;;5093826;27;43530;-75
2023/06/21 00:46:12;;;;;;;;;;;27.60;58.80;;;;;;5083798;27;43074;-75
2023/06/21 00:48:38;;;;;;;;;;;27.60;58.70;;;;;;5084536;27;43480;-74
2023/06/21 00:51:03;;;;;;;;;;;27.60;59.10;;;;;;5084293;27;44172;-74
2023/06/21 00:53:30;;;;;;;;;;;27.50;58.80;;;;;;5084980;27;43012;-75
2023/06/21 00:55:56;;;;;;;;;;;27.50;58.70;;;;;;5084147;27;43044;-79
2023/06/21 00:58:21;;;;;;;;;;;27.50;58.60;;;;;;5084222;27;43606;-74
2023/06/21 01:00:49;;;;;;;;;;;27.50;58.90;;;;;;5084985;27;42895;-77
2023/06/21 01:03:16;;;;;;;;;;;27.50;58.70;;;;;;5083842;27;42882;-75
2023/06/21 01:05:43;;;;;;;;;;;27.60;58.80;;;;;;5084495;27;42947;-75
2023/06/21 01:08:21;;;;;;;;;;;27.50;58.90;;;;;;5083408;27;43743;-76
2023/06/21 01:10:50;;;;;;;;;;;27.50;59.40;;;;;;5084386;27;43081;-77
2023/06/21 01:13:33;;;;;;;;;;;27.50;59.20;;;;;;5084354;27;43074;-74
2023/06/21 01:16:11;;;;;;;;;;;27.50;58.80;;;;;;5084789;27;43098;-75
2023/06/21 01:18:37;;;;;;;;;;;27.50;59.20;;;;;;5084050;27;43887;-75
2023/06/21 01:21:06;;;;;;;;;;;27.50;59.30;;;;;;5084853;27;43247;-76
2023/06/21 01:23:32;;;;;;;;;;;27.50;58.70;;;;;;5075645;27;43050;-75
2023/06/21 01:26:16;;;;;;;;;;;27.50;59.10;;;;;;5104482;27;42759;-74
2023/06/21 01:29:00;;;;;;;;;;;27.50;59.20;;;;;;5103451;27;43008;-74
2023/06/21 01:31:27;;;;;;;;;;;27.50;59.30;;;;;;5104223;27;43212;-75
2023/06/21 01:33:53;;;;;;;;;;;27.40;59.40;;;;;;5104393;27;42901;-83
2023/06/21 01:36:19;;;;;;;;;;;27.40;59.00;;;;;;5106348;27;42901;-78
2023/06/21 01:38:45;;;;;;;;;;;27.40;59.50;;;;;;5088267;27;43031;-75
2023/06/21 01:41:12;;;;;;;;;;;27.40;59.60;;;;;;5101725;27;42985;-75
2023/06/21 01:43:38;;;;;;;;;;;27.40;59.00;;;;;;5106865;27;42895;-75
2023/06/21 01:46:04;;;;;;;;;;;27.40;59.60;;;;;;5090736;27;43068;-74
2023/06/21 01:48:31;;;;;;;;;;;27.40;58.90;;;;;;5069820;27;42894;-75
2023/06/21 01:50:57;;;;;;;;;;;27.30;58.80;;;;;;5072756;27;42928;-75
2023/06/21 01:53:24;;;;;;;;;;;27.30;59.00;;;;;;5085045;27;43559;-80
2023/06/21 01:55:50;;;;;;;;;;;27.30;59.40;;;;;;5056956;28;43000;-82
2023/06/21 01:58:16;;;;;;;;;;;27.30;58.90;;;;;;5086847;27;43525;-74
2023/06/21 02:00:43;;;;;;;;;;;27.40;59.00;;;;;;5087811;27;43029;-76
2023/06/21 02:03:13;;;;;;;;;;;27.40;59.40;;;;;;5082020;27;42861;-78
2023/06/21 02:05:41;;;;;;;;;;;27.40;59.70;;;;;;5094533;27;43058;-75
2023/06/21 02:08:11;;;;;;;;;;;27.30;59.00;;;;;;5099023;27;43584;-75
2023/06/21 02:10:37;;;;;;;;;;;27.40;59.50;;;;;;5088083;27;42957;-81
2023/06/21 02:13:02;;;;;;;;;;;27.30;59.50;;;;;;5106507;27;43532;-74
2023/06/21 02:15:28;;;;;;;;;;;27.30;59.70;;;;;;5090659;27;43193;-75
2023/06/21 02:17:53;;;;;;;;;;;27.30;59.60;;;;;;5067066;28;43568;-75
2023/06/21 02:20:20;;;;;;;;;;;27.30;59.40;;;;;;5087910;27;42975;-74
2023/06/21 02:22:46;;;;;;;;;;;27.30;59.20;;;;;;5087173;27;43222;-74
2023/06/21 02:25:12;;;;;;;;;;;27.30;59.80;;;;;;5085442;27;43021;-74
2023/06/21 02:27:38;;;;;;;;;;;27.30;59.80;;;;;;5085340;27;42948;-74
2023/06/21 02:30:05;;;;;;;;;;;27.30;59.20;;;;;;5086797;27;42832;-75
2023/06/21 02:32:30;;;;;;;;;;;27.30;59.20;;;;;;5066103;27;44952;-76
2023/06/21 02:34:56;;;;;;;;;;;27.30;59.60;;;;;;5085552;27;43001;-77
2023/06/21 02:37:21;;;;;;;;;;;27.30;59.50;;;;;;5086916;27;43024;-75
2023/06/21 02:39:47;;;;;;;;;;;27.30;59.50;;;;;;5086693;27;42916;-74
2023/06/21 02:42:12;;;;;;;;;;;27.20;59.40;;;;;;5086507;27;43970;-74
2023/06/21 02:44:38;;;;;;;;;;;27.20;59.50;;;;;;5086764;27;43023;-79
2023/06/21 02:47:03;;;;;;;;;;;27.30;59.70;;;;;;5085875;27;42934;-74
2023/06/21 02:49:30;;;;;;;;;;;27.20;59.60;;;;;;5087654;27;42934;-81
2023/06/21 02:51:55;;;;;;;;;;;27.20;59.00;;;;;;5087511;27;42909;-75
2023/06/21 02:54:21;;;;;;;;;;;27.20;59.10;;;;;;5081146;27;42993;-75
2023/06/21 02:56:47;;;;;;;;;;;25.20;58.00;;;;;;5079753;28;43371;-75
2023/06/21 02:59:12;;;;;;;;;;;27.10;59.30;;;;;;5086110;28;42858;-75
2023/06/21 03:01:38;;;;;;;;;;;27.10;60.30;;;;;;5085708;27;43041;-74
2023/06/21 03:04:04;;;;;;;;;;;27.00;59.70;;;;;;5072351;27;42937;-74
2023/06/21 03:06:29;;;;;;;;;;;27.00;59.80;;;;;;5085627;27;43353;-74
2023/06/21 03:08:55;;;;;;;;;;;27.00;59.90;;;;;;5085488;27;42919;-74
2023/06/21 03:11:21;;;;;;;;;;;27.00;59.80;;;;;;5086424;27;43020;-76
2023/06/21 03:13:47;;;;;;;;;;;27.00;60.00;;;;;;5073881;27;42967;-75
2023/06/21 03:16:13;;;;;;;;;;;27.00;59.80;;;;;;5085894;27;43318;-74
2023/06/21 03:18:38;;;;;;;;;;;27.00;59.80;;;;;;5085091;27;42931;-75
2023/06/21 03:21:04;;;;;;;;;;;27.00;59.70;;;;;;5085093;27;42948;-75
2023/06/21 03:23:29;;;;;;;;;;;27.00;59.70;;;;;;5097645;27;42986;-79
2023/06/21 03:25:55;;;;;;;;;;;27.00;59.70;;;;;;5098434;27;43093;-74
2023/06/21 03:28:20;;;;;;;;;;;27.00;59.60;;;;;;5102358;27;43012;-74
2023/06/21 03:30:46;;;;;;;;;;;27.00;59.60;;;;;;5092394;27;42902;-74
2023/06/21 03:33:11;;;;;;;;;;;27.00;59.60;;;;;;5105794;27;43045;-74
2023/06/21 03:35:37;;;;;;;;;;;27.00;59.70;;;;;;5099709;27;43571;-75
2023/06/21 03:38:02;;;;;;;;;;;27.00;59.00;;;;;;5093410;27;43509;-80
2023/06/21 03:40:28;;;;;;;;;;;22.50;56.20;;;;;;5104617;27;42977;-74
2023/06/21 03:42:54;;;;;;;;;;;27.00;58.80;;;;;;5079198;27;43016;-74
2023/06/21 03:45:19;;;;;;;;;;;27.00;59.40;;;;;;5101793;27;43064;-77
2023/06/21 03:47:45;;;;;;;;;;;26.90;58.90;;;;;;5091880;27;42989;-74
2023/06/21 03:50:13;;;;;;;;;;;26.90;59.00;;;;;;5083994;28;42994;-75
2023/06/21 03:52:39;;;;;;;;;;;26.90;59.40;;;;;;5085764;27;42988;-80
2023/06/21 03:55:05;;;;;;;;;;;26.90;59.40;;;;;;5074104;27;43682;-77
2023/06/21 03:57:31;;;;;;;;;;;26.90;58.90;;;;;;5099172;27;43089;-76
2023/06/21 03:59:57;;;;;;;;;;;26.90;59.20;;;;;;5094685;27;43701;-76
2023/06/21 04:02:22;;;;;;;;;;;26.90;59.10;;;;;;5096631;27;42993;-75
2023/06/21 04:04:48;;;;;;;;;;;26.90;58.60;;;;;;5092452;27;43412;-76
2023/06/21 04:07:14;;;;;;;;;;;26.90;58.60;;;;;;5103934;27;43973;-78
2023/06/21 04:09:39;;;;;;;;;;;26.90;58.50;;;;;;5088171;27;43726;-78
2023/06/21 04:12:05;;;;;;;;;;;26.90;59.00;;;;;;5091565;27;42994;-77
2023/06/21 04:14:30;;;;;;;;;;;26.90;58.40;;;;;;5076876;28;42932;-78
2023/06/21 04:16:56;;;;;;;;;;;26.90;59.10;;;;;;5092262;27;43265;-77
2023/06/21 04:19:22;;;;;;;;;;;26.90;58.50;;;;;;5083017;27;44531;-77
2023/06/21 04:21:47;;;;;;;;;;;27.00;58.80;;;;;;5101875;27;43008;-78
2023/06/21 04:24:13;;;;;;;;;;;27.00;58.60;;;;;;5104422;27;43615;-78
2023/06/21 04:26:38;;;;;;;;;;;27.00;58.50;;;;;;5103410;27;43040;-77
2023/06/21 04:29:04;;;;;;;;;;;26.90;59.00;;;;;;5104210;27;42921;-76
2023/06/21 04:31:29;;;;;;;;;;;26.90;58.60;;;;;;5087332;27;43284;-78
2023/06/21 04:33:55;;;;;;;;;;;27.00;58.90;;;;;;5096690;27;43649;-77
2023/06/21 04:36:21;;;;;;;;;;;27.00;58.90;;;;;;5086007;27;42942;-77
2023/06/21 04:38:48;;;;;;;;;;;27.00;58.80;;;;;;5087988;27;42986;-77
2023/06/21 04:41:17;;;;;;;;;;;27.00;58.70;;;;;;5089272;27;42961;-77
2023/06/21 04:43:43;;;;;;;;;;;27.00;58.80;;;;;;5091717;27;43271;-75
2023/06/21 04:46:09;;;;;;;;;;;27.00;59.20;;;;;;5081980;27;43002;-78
2023/06/21 04:48:34;;;;;;;;;;;27.00;58.60;;;;;;5071355;27;42972;-77
2023/06/21 04:51:00;;;;;;;;;;;27.00;58.40;;;;;;5087207;27;43994;-78
2023/06/21 04:53:29;;;;;;;;;;;27.00;57.90;;;;;;5076235;27;45297;-79
2023/06/21 04:55:58;;;;;;;;;;;27.00;58.20;;;;;;5068435;27;43033;-79
2023/06/21 04:58:24;;;;;;;;;;;27.00;57.60;;;;;;5059373;28;44134;-78
2023/06/21 05:00:49;;;;;;;;;;;27.00;57.60;;;;;;5089492;27;43058;-80
2023/06/21 05:03:15;;;;;;;;;;;27.00;58.10;;;;;;5090374;27;43083;-77
2023/06/21 05:05:41;;;;;;;;;;;27.00;58.30;;;;;;5083406;27;43001;-78
2023/06/21 05:08:06;;;;;;;;;;;27.00;58.10;;;;;;5090039;27;42934;-78
2023/06/21 05:10:32;;;;;;;;;;;27.00;57.60;;;;;;5072147;28;43099;-75
2023/06/21 05:12:58;;;;;;;;;;;27.00;57.80;;;;;;5073867;28;43808;-75
2023/06/21 05:15:23;;;;;;;;;;;27.10;58.10;;;;;;5084119;27;43266;-75
2023/06/21 05:17:49;;;;;;;;;;;27.10;57.80;;;;;;5102884;27;43963;-76
2023/06/21 05:20:14;;;;;;;;;;;27.10;57.60;;;;;;5098537;27;43199;-76
2023/06/21 05:22:42;;;;;;;;;;;27.10;57.00;;;;;;5084433;27;43489;-74
2023/06/21 05:25:08;;;;;;;;;;;27.10;57.10;;;;;;5063098;28;43171;-79
2023/06/21 05:27:33;;;;;;;;;;;27.20;57.10;;;;;;5094566;27;42913;-75
2023/06/21 05:29:59;;;;;;;;;;;27.10;57.50;;;;;;5096751;27;42940;-76
2023/06/21 05:32:25;;;;;;;;;;;27.20;57.60;;;;;;5086913;27;42870;-75
2023/06/21 05:34:51;;;;;;;;;;;27.20;57.80;;;;;;5094154;27;42866;-76
2023/06/21 05:37:17;;;;;;;;;;;27.10;57.40;;;;;;5091452;27;43739;-75
2023/06/21 05:39:45;;;;;;;;;;;27.20;57.40;;;;;;5087504;27;44149;-74
2023/06/21 05:42:11;;;;;;;;;;;27.20;58.00;;;;;;5082694;27;44293;-75
2023/06/21 05:44:36;;;;;;;;;;;27.20;58.10;;;;;;5081842;27;43039;-82
2023/06/21 05:47:02;;;;;;;;;;;27.30;58.50;;;;;;5086577;28;43586;-77
2023/06/21 05:49:27;;;;;;;;;;;27.30;58.20;;;;;;5078361;27;43250;-77
2023/06/21 05:51:53;;;;;;;;;;;27.20;58.20;;;;;;5079782;27;43489;-78
2023/06/21 05:54:18;;;;;;;;;;;27.30;58.80;;;;;;5078651;27;42832;-80
2023/06/21 05:56:44;;;;;;;;;;;27.20;58.90;;;;;;5091090;27;43334;-83
2023/06/21 05:59:10;;;;;;;;;;;27.20;58.40;;;;;;5107463;27;42992;-74
2023/06/21 06:01:36;;;;;;;;;;;27.20;58.60;;;;;;5078342;27;42984;-74
2023/06/21 06:04:01;;;;;;;;;;;27.30;58.70;;;;;;5071958;27;43063;-76
2023/06/21 06:06:34;;;;;;;;;;;27.30;58.60;;;;;;5099591;27;43017;-76
2023/06/21 06:08:59;;;;;;;;;;;27.30;59.10;;;;;;5075773;28;42859;-75
2023/06/21 06:11:25;;;;;;;;;;;27.30;59.10;;;;;;5086592;28;43633;-80
2023/06/21 06:13:50;;;;;;;;;;;27.30;59.30;;;;;;5086738;28;43115;-75
2023/06/21 06:16:16;;;;;;;;;;;27.30;59.60;;;;;;5098086;27;43826;-78
2023/06/21 06:18:41;;;;;;;;;;;27.30;59.60;;;;;;5094548;27;43113;-77
2023/06/21 06:21:07;;;;;;;;;;;27.30;59.80;;;;;;5101327;27;42946;-77
2023/06/21 06:23:32;;;;;;;;;;;27.30;59.80;;;;;;5097934;27;43116;-78
2023/06/21 06:25:58;;;;;;;;;;;27.30;59.40;;;;;;5074817;27;42985;-76
2023/06/21 06:28:23;;;;;;;;;;;27.30;59.40;;;;;;5107200;27;42878;-76
2023/06/21 06:30:49;;;;;;;;;;;27.30;60.00;;;;;;5106350;27;42981;-80
2023/06/21 06:33:14;;;;;;;;;;;27.30;59.90;;;;;;5107142;27;43094;-81
2023/06/21 06:35:40;;;;;;;;;;;27.30;60.10;;;;;;5106007;27;43497;-76
2023/06/21 06:38:05;;;;;;;;;;;27.30;59.70;;;;;;5106693;27;43005;-76
2023/06/21 06:40:31;;;;;;;;;;;27.30;60.00;;;;;;5092565;27;43025;-80
2023/06/21 06:42:57;;;;;;;;;;;27.30;59.90;;;;;;5106743;27;42927;-78
2023/06/21 06:45:22;;;;;;;;;;;27.40;59.90;;;;;;5104518;27;43528;-79
2023/06/21 06:47:48;;;;;;;;;;;27.30;59.30;;;;;;5094731;27;42875;-78
2023/06/21 06:50:13;;;;;;;;;;;27.30;59.70;;;;;;5101763;27;43016;-75
2023/06/21 06:52:39;;;;;;;;;;;27.40;59.70;;;;;;5094597;27;42905;-79
2023/06/21 06:55:05;;;;;;;;;;;27.40;59.70;;;;;;5078859;27;43400;-80
2023/06/21 06:57:30;;;;;;;;;;;27.30;60.10;;;;;;5092030;27;43199;-77
2023/06/21 06:59:56;;;;;;;;;;;27.40;59.60;;;;;;5105955;27;43768;-75
2023/06/21 07:02:21;;;;;;;;;;;27.40;59.30;;;;;;5105692;27;42878;-76
2023/06/21 07:04:47;;;;;;;;;;;27.30;59.20;;;;;;5092321;27;43937;-80
2023/06/21 07:07:12;;;;;;;;;;;27.30;59.20;;;;;;5104389;27;42959;-76
2023/06/21 07:09:38;;;;;;;;;;;27.40;59.70;;;;;;5101984;27;43701;-79
2023/06/21 07:12:04;;;;;;;;;;;27.40;59.70;;;;;;5080636;27;43143;-80
2023/06/21 07:14:29;;;;;;;;;;;27.40;59.30;;;;;;5078802;27;42986;-76
2023/06/21 07:16:55;;;;;;;;;;;27.40;59.70;;;;;;5071154;27;43070;-75
2023/06/21 07:19:20;;;;;;;;;;;27.40;59.80;;;;;;5086962;27;43699;-76
2023/06/21 07:21:46;;;;;;;;;;;27.40;59.20;;;;;;5088165;27;42877;-76
2023/06/21 07:24:11;;;;;;;;;;;27.40;59.30;;;;;;5077140;27;43774;-75
2023/06/21 07:26:40;;;;;;;;;;;27.40;59.20;;;;;;5081049;27;42951;-80
2023/06/21 07:29:05;;;;;;;;;;;27.40;59.60;;;;;;5099058;27;43079;-76
2023/06/21 07:31:34;;;;;;;;;;;27.40;59.70;;;;;;5101233;27;43009;-76
2023/06/21 07:34:00;;;;;;;;;;;27.40;59.60;;;;;;5097566;27;43037;-76
2023/06/21 07:36:26;;;;;;;;;;;27.40;59.60;;;;;;5101625;27;42982;-75
2023/06/21 07:38:51;;;;;;;;;;;27.40;59.50;;;;;;5098045;27;42922;-77
2023/06/21 07:41:17;;;;;;;;;;;27.40;59.60;;;;;;5101763;27;42953;-75
2023/06/21 07:43:43;;;;;;;;;;;27.40;59.00;;;;;;5099683;27;42952;-76
2023/06/21 07:46:08;;;;;;;;;;;27.40;59.10;;;;;;5102377;27;43061;-75
2023/06/21 07:48:34;;;;;;;;;;;27.40;59.50;;;;;;5098705;27;42986;-75
2023/06/21 07:51:00;;;;;;;;;;;27.50;59.60;;;;;;5101573;27;43037;-77
2023/06/21 07:53:26;;;;;;;;;;;27.40;59.10;;;;;;5098726;27;43451;-75
2023/06/21 07:55:51;;;;;;;;;;;27.40;59.50;;;;;;5072967;27;42964;-76
2023/06/21 07:58:17;;;;;;;;;;;27.40;59.00;;;;;;5104758;27;42976;-76
2023/06/21 08:00:42;;;;;;;;;;;27.50;59.50;;;;;;5085957;27;43009;-75
2023/06/21 08:03:08;;;;;;;;;;;27.50;59.60;;;;;;5085579;27;43444;-76
2023/06/21 08:05:33;;;;;;;;;;;27.50;59.50;;;;;;5085266;27;43489;-75
2023/06/21 08:08:01;;;;;;;;;;;27.50;59.00;;;;;;5085556;28;42953;-75
2023/06/21 08:10:33;;;;;;;;;;;27.50;59.60;;;;;;5086052;27;43114;-75
2023/06/21 08:12:59;;;;;;;;;;;27.50;59.00;;;;;;5066629;27;45145;-75
2023/06/21 08:15:25;;;;;;;;;;;27.50;59.40;;;;;;5092102;27;43156;-75
2023/06/21 08:17:51;;;;;;;;;;;27.50;59.40;;;;;;5091904;27;43550;-76
2023/06/21 08:20:17;;;;;;;;;;;27.50;58.90;;;;;;5092472;27;42948;-75
2023/06/21 08:22:43;;;;;;;;;;;27.50;58.80;;;;;;5091063;27;44157;-75
2023/06/21 08:25:08;;;;;;;;;;;27.50;59.30;;;;;;5105514;27;43455;-75
2023/06/21 08:27:34;;;;;;;;;;;27.50;59.30;;;;;;5103858;27;42878;-75
2023/06/21 08:29:59;;;;;;;;;;;27.60;59.30;;;;;;5104772;27;42890;-75
2023/06/21 08:32:25;;;;;;;;;;;27.50;58.70;;;;;;5104693;27;42908;-75
2023/06/21 08:34:52;;;;;;;;;;;27.60;58.70;;;;;;5098144;27;42992;-76
2023/06/21 08:37:22;;;;;;;;;;;27.50;59.10;;;;;;5097643;27;43607;-75
2023/06/21 08:39:52;;;;;;;;;;;27.60;58.70;;;;;;5091894;27;42987;-80
2023/06/21 08:42:23;;;;;;;;;;;27.60;59.10;;;;;;5103908;27;43050;-75
2023/06/21 08:44:49;;;;;;;;;;;27.60;59.10;;;;;;5102630;27;43105;-76
2023/06/21 08:47:15;;;;;;;;;;;27.60;58.60;;;;;;5103722;27;42965;-75
2023/06/21 08:49:41;;;;;;;;;;;27.60;59.10;;;;;;5104484;27;43042;-75
2023/06/21 08:52:11;;;;;;;;;;;27.60;59.00;;;;;;5103472;27;42976;-76
2023/06/21 08:54:39;;;;;;;;;;;27.60;59.00;;;;;;5087150;27;42915;-75
2023/06/21 08:57:17;;;;;;;;;;;27.60;59.00;;;;;;5080858;27;42876;-76
2023/06/21 08:59:49;;;;;;;;;;;27.60;59.10;;;;;;5085053;27;42956;-76
2023/06/21 09:02:35;;;;;;;;;;;27.60;59.00;;;;;;5084317;27;43494;-80
2023/06/21 09:05:03;;;;;;;;;;;27.60;59.00;;;;;;5065956;27;42910;-81
2023/06/21 09:07:29;;;;;;;;;;;27.60;59.00;;;;;;5085175;27;43037;-75
2023/06/21 09:09:56;;;;;;;;;;;27.60;58.90;;;;;;5085785;27;42939;-76
2023/06/21 09:12:21;;;;;;;;;;;27.60;58.60;;;;;;5084889;27;43100;-78
2023/06/21 09:14:47;;;;;;;;;;;27.60;58.50;;;;;;5085531;27;43006;-75
2023/06/21 09:17:13;;;;;;;;;;;27.70;59.00;;;;;;5084839;27;42949;-80
2023/06/21 09:19:40;;;;;;;;;;;27.60;58.40;;;;;;5066082;27;43186;-75
2023/06/21 09:22:06;;;;;;;;;;;27.70;58.50;;;;;;5084898;27;43000;-75
2023/06/21 09:24:32;;;;;;;;;;;27.70;58.50;;;;;;5084424;27;42994;-75
2023/06/21 09:26:58;;;;;;;;;;;27.60;58.40;;;;;;5084647;27;43026;-75
2023/06/21 09:29:23;;;;;;;;;;;27.70;58.50;;;;;;5085055;27;43422;-74
2023/06/21 09:31:49;;;;;;;;;;;27.70;58.90;;;;;;5084789;27;43377;-78
2023/06/21 09:34:15;;;;;;;;;;;27.70;58.40;;;;;;5084473;27;42956;-75
2023/06/21 09:36:40;;;;;;;;;;;27.70;58.80;;;;;;5065847;28;43798;-75
2023/06/21 09:39:07;;;;;;;;;;;27.70;58.80;;;;;;5086035;27;42980;-75
2023/06/21 09:41:33;;;;;;;;;;;27.70;58.40;;;;;;5104094;27;42705;-80
2023/06/21 09:43:58;;;;;;;;;;;27.70;58.30;;;;;;5103542;27;43174;-75
2023/06/21 09:46:24;;;;;;;;;;;27.70;58.40;;;;;;5103896;27;42870;-75
2023/06/21 09:48:49;;;;;;;;;;;27.70;58.30;;;;;;5103410;27;42945;-74
2023/06/21 09:51:16;;;;;;;;;;;27.70;58.40;;;;;;5104097;27;42990;-75
2023/06/21 09:53:43;;;;;;;;;;;27.70;58.40;;;;;;5101041;27;43062;-75
2023/06/21 09:56:08;;;;;;;;;;;27.70;58.90;;;;;;5081921;27;44654;-75
2023/06/21 09:58:34;;;;;;;;;;;27.70;59.00;;;;;;5092418;27;43002;-75
2023/06/21 10:01:05;;;;;;;;;;;27.70;58.50;;;;;;5086765;28;42982;-75
2023/06/21 10:03:32;;;;;;;;;;;27.70;59.00;;;;;;5087340;27;42910;-78
2023/06/21 10:05:59;;;;;;;;;;;27.70;58.40;;;;;;5085558;27;43948;-77
2023/06/21 10:08:28;;;;;;;;;;;27.80;58.30;;;;;;5089617;27;43465;-77
2023/06/21 10:10:53;;;;;;;;;;;27.70;58.10;;;;;;5100317;27;43766;-76
2023/06/21 10:13:26;;;;;;;;;;;27.70;58.60;;;;;;5098302;27;43048;-76
2023/06/21 10:15:52;;;;;;;;;;;27.70;58.10;;;;;;5090665;27;43507;-76
2023/06/21 10:18:17;;;;;;;;;;;27.80;58.20;;;;;;5099675;27;42943;-80
2023/06/21 10:20:43;;;;;;;;;;;27.70;58.20;;;;;;5081079;27;43816;-78
2023/06/21 10:23:10;;;;;;;;;;;27.80;58.80;;;;;;5098869;27;42924;-77
2023/06/21 10:25:37;;;;;;;;;;;27.80;58.30;;;;;;5088751;27;43041;-78
2023/06/21 10:28:05;;;;;;;;;;;27.80;58.80;;;;;;5089648;27;42886;-78
2023/06/21 10:30:33;;;;;;;;;;;27.80;58.80;;;;;;5080118;28;43493;-77
2023/06/21 10:33:00;;;;;;;;;;;27.80;58.30;;;;;;5092393;27;43122;-79
2023/06/21 10:35:26;;;;;;;;;;;27.80;58.80;;;;;;5085854;28;43572;-78
2023/06/21 10:37:57;;;;;;;;;;;27.80;58.90;;;;;;5091728;27;43697;-78
2023/06/21 10:40:23;;;;;;;;;;;27.80;59.10;;;;;;5089076;27;42958;-78
2023/06/21 10:42:49;;;;;;;;;;;27.80;59.20;;;;;;5072915;27;42898;-78
2023/06/21 10:45:15;;;;;;;;;;;27.80;58.70;;;;;;5084293;28;43513;-78
2023/06/21 10:47:41;;;;;;;;;;;27.80;58.60;;;;;;5088020;27;43043;-78
2023/06/21 10:50:07;;;;;;;;;;;27.80;59.20;;;;;;5087905;27;43638;-78
2023/06/21 10:52:33;;;;;;;;;;;27.80;58.90;;;;;;5090366;27;43000;-78
2023/06/21 10:55:00;;;;;;;;;;;27.80;59.90;;;;;;5077282;27;43004;-77
2023/06/21 10:57:27;;;;;;;;;;;27.80;60.00;;;;;;5104694;27;42831;-77
2023/06/21 10:59:54;;;;;;;;;;;27.90;59.80;;;;;;5106722;27;42883;-78
2023/06/21 11:02:19;;;;;;;;;;;27.90;59.30;;;;;;5106039;27;42936;-78
2023/06/21 11:05:04;;;;;;;;;;;27.90;59.70;;;;;;5105611;27;43316;-78
2023/06/21 11:07:29;;;;;;;;;;;27.80;60.00;;;;;;5083322;27;43025;-78
2023/06/21 11:10:02;;;;;;;;;;;27.90;59.60;;;;;;5103612;27;42878;-78
2023/06/21 11:12:27;;;;;;;;;;;27.90;59.60;;;;;;5091430;27;42958;-78
2023/06/21 11:14:54;;;;;;;;;;;27.90;60.50;;;;;;5077853;27;43073;-78
2023/06/21 11:17:23;;;;;;;;;;;27.80;59.90;;;;;;5089766;27;42997;-78
2023/06/21 11:19:49;;;;;;;;;;;27.80;59.80;;;;;;5084994;27;42972;-78
2023/06/21 11:22:18;;;;;;;;;;;27.90;60.30;;;;;;5095281;27;42847;-79
2023/06/21 11:24:50;;;;;;;;;;;27.90;59.60;;;;;;5094260;27;43582;-78
2023/06/21 11:27:16;;;;;;;;;;;27.90;60.10;;;;;;5094427;27;42804;-78
2023/06/21 11:29:41;;;;;;;;;;;27.90;60.10;;;;;;5096143;27;43710;-78
2023/06/21 11:32:15;;;;;;;;;;;27.90;60.00;;;;;;5093271;27;59724;-78
2023/06/21 11:34:53;;;;;;;;;;;27.90;60.00;;;;;;5096960;27;43044;-78
2023/06/21 11:37:32;;;;;;;;;;;27.90;60.00;;;;;;5085541;27;42965;-78
2023/06/21 11:40:05;;;;;;;;;;;27.90;60.00;;;;;;5095447;27;44047;-79
2023/06/21 11:42:57;;;;;;;;;;;27.90;59.60;;;;;;5094934;27;42942;-78
2023/06/21 11:45:24;;;;;;;;;;;27.90;60.10;;;;;;5080497;27;43775;-79
2023/06/21 11:48:11;;;;;;;;;;;27.90;60.10;;;;;;5098090;27;42950;-78
2023/06/21 11:50:40;;;;;;;;;;;27.90;59.60;;;;;;5095315;27;42958;-77
2023/06/21 11:53:32;;;;;;;;;;;27.90;59.50;;;;;;5076115;28;43096;-78
2023/06/21 11:56:02;;;;;;;;;;;27.90;59.50;;;;;;5099821;27;42966;-78
2023/06/21 11:58:28;;;;;;;;;;;27.90;60.00;;;;;;5105323;27;43052;-78
2023/06/21 12:00:54;;;;;;;;;;;27.90;59.90;;;;;;5105744;27;43467;-78
2023/06/21 12:03:26;;;;;;;;;;;27.90;59.50;;;;;;5104159;27;43021;-78
2023/06/21 12:05:52;;;;;;;;;;;27.90;59.50;;;;;;5085523;27;42983;-78
2023/06/21 12:08:19;;;;;;;;;;;27.90;59.50;;;;;;5086391;27;42694;-78
2023/06/21 12:10:45;;;;;;;;;;;27.90;59.40;;;;;;5085386;27;42757;-79
2023/06/21 12:13:12;;;;;;;;;;;28.00;59.50;;;;;;5085113;27;43953;-78
2023/06/21 12:15:37;;;;;;;;;;;28.00;60.00;;;;;;5085575;27;42969;-78
2023/06/21 12:18:05;;;;;;;;;;;27.90;59.40;;;;;;5100228;27;43063;-78
2023/06/21 12:20:31;;;;;;;;;;;;;;;;;;5105686;27;43703;-79
2023/06/21 12:22:57;;;;;;;;;;;28.00;59.50;;;;;;5089958;27;42836;-78
2023/06/21 12:25:22;;;;;;;;;;;28.00;60.00;;;;;;5067020;28;43920;-78
2023/06/21 12:27:51;;;;;;;;;;;28.00;59.50;;;;;;5085379;27;42995;-78
2023/06/21 12:30:17;;;;;;;;;;;28.00;59.50;;;;;;5084637;27;43459;-78
2023/06/21 12:32:43;;;;;;;;;;;27.90;59.90;;;;;;5075489;27;43012;-78
2023/06/21 12:35:08;;;;;;;;;;;27.90;59.50;;;;;;5083559;27;43370;-78
2023/06/21 12:37:37;;;;;;;;;;;27.90;59.40;;;;;;5082923;27;44002;-77
2023/06/21 12:40:05;;;;;;;;;;;27.90;59.40;;;;;;5059633;28;43997;-79
2023/06/21 12:42:31;;;;;;;;;;;;;;;;;;5098048;27;43047;-79
2023/06/21 12:44:57;;;;;;;;;;;28.00;59.30;;;;;;5073523;27;42926;-78
2023/06/21 12:47:23;;;;;;;;;;;27.90;59.20;;;;;;5076847;27;42966;-78
2023/06/21 12:49:49;;;;;;;;;;;28.00;59.20;;;;;;5068662;28;43027;-79
2023/06/21 12:52:15;;;;;;;;;;;28.00;59.20;;;;;;5092317;27;42953;-77
2023/06/21 12:54:53;;;;;;;;;;;28.00;59.80;;;;;;5078511;27;43032;-78
2023/06/21 12:57:24;;;;;;;;;;;27.90;59.30;;;;;;5093668;27;42991;-78
2023/06/21 12:59:50;;;;;;;;;;;27.90;59.00;;;;;;5087227;27;43678;-78
2023/06/21 13:02:16;;;;;;;;;;;27.90;59.00;;;;;;5102819;27;42910;-78
2023/06/21 13:04:47;;;;;;;;;;;27.90;59.50;;;;;;5104450;27;43566;-78
2023/06/21 13:07:13;;;;;;;;;;;28.00;58.80;;;;;;5103283;27;42911;-78
2023/06/21 13:09:39;;;;;;;;;;;28.00;58.80;;;;;;5097490;27;42953;-78
2023/06/21 13:12:05;;;;;;;;;;;28.00;58.70;;;;;;5103378;27;42886;-78
2023/06/21 13:14:30;;;;;;;;;;;28.00;59.10;;;;;;5089911;27;42942;-79
2023/06/21 13:16:56;;;;;;;;;;;28.00;58.70;;;;;;5091136;27;43011;-78
2023/06/21 13:19:21;;;;;;;;;;;28.00;58.70;;;;;;5087322;27;43018;-79
2023/06/21 13:21:47;;;;;;;;;;;27.90;58.60;;;;;;5099870;27;42958;-78
2023/06/21 13:24:12;;;;;;;;;;;28.00;58.60;;;;;;5086375;27;43655;-77
2023/06/21 13:26:38;;;;;;;;;;;28.00;58.50;;;;;;5090814;27;43001;-78
2023/06/21 13:29:03;;;;;;;;;;;28.00;58.50;;;;;;5085963;27;43577;-78
2023/06/21 13:31:29;;;;;;;;;;;27.90;58.40;;;;;;5092665;27;42847;-78
2023/06/21 13:33:54;;;;;;;;;;;28.00;58.80;;;;;;5088482;27;43033;-78
2023/06/21 13:36:20;;;;;;;;;;;27.90;58.20;;;;;;5068238;28;43752;-78
2023/06/21 13:38:46;;;;;;;;;;;27.90;58.10;;;;;;5087139;28;43667;-78
2023/06/21 13:41:11;;;;;;;;;;;27.90;58.10;;;;;;5076283;28;43214;-78
2023/06/21 13:43:37;;;;;;;;;;;27.90;57.90;;;;;;5094552;27;42986;-78
2023/06/21 13:46:03;;;;;;;;;;;27.90;57.70;;;;;;5099660;27;43335;-78
2023/06/21 13:48:28;;;;;;;;;;;27.90;57.70;;;;;;5088474;27;43489;-78
2023/06/21 13:50:54;;;;;;;;;;;27.90;57.70;;;;;;5092906;27;42961;-78
2023/06/21 13:53:21;;;;;;;;;;;27.90;57.70;;;;;;5092645;27;42979;-77
2023/06/21 13:55:47;;;;;;;;;;;27.90;57.60;;;;;;5071668;27;42980;-78
2023/06/21 13:58:12;;;;;;;;;;;28.00;58.10;;;;;;5082287;27;43412;-78
2023/06/21 14:00:38;;;;;;;;;;;27.90;57.50;;;;;;5073052;27;43330;-79
2023/06/21 14:03:03;;;;;;;;;;;27.90;57.50;;;;;;5085484;27;42934;-78
2023/06/21 14:05:30;;;;;;;;;;;27.90;57.90;;;;;;5077780;27;42974;-78
2023/06/21 14:07:55;;;;;;;;;;;28.00;57.80;;;;;;5083323;27;43140;-78
2023/06/21 14:10:21;;;;;;;;;;;28.00;57.30;;;;;;5091182;27;42988;-78
2023/06/21 14:12:46;;;;;;;;;;;28.00;57.30;;;;;;5075310;28;43225;-78
2023/06/21 14:15:12;;;;;;;;;;;28.00;57.30;;;;;;5094672;27;43101;-78
2023/06/21 14:17:38;;;;;;;;;;;28.00;57.00;;;;;;5092008;27;43058;-79